Time;durP1;ratioP1;P1;durP2;ratioP2;P2;SDS_P1;SDS_P2;PMS_P1;PMS_P2;Temp;Humidity;BMP_temperature;BMP_pressure;BME280_temperature;BME280_humidity;BME280_pressure;Samples;Min_cycle;Max_cycle;Signal;HPM_P1;HPM_P2
2023/01/02 00:01:10;;;;;;;6.00;3.30;;;16.80;64.10;18.00;100407.00;;;;4989977;28;20185;-47
2023/01/02 00:03:36;;;;;;;6.67;3.47;;;16.80;64.30;18.00;100414.00;;;;4974107;28;20567;-48
2023/01/02 00:06:05;;;;;;;5.53;3.40;;;16.80;64.30;17.70;100407.00;;;;5006922;28;20299;-47
2023/01/02 00:08:31;;;;;;;6.50;3.30;;;16.80;64.20;17.90;100397.00;;;;5006390;28;20308;-46
2023/01/02 00:10:57;;;;;;;7.17;3.60;;;16.90;64.20;17.90;100408.00;;;;4990329;28;20753;-47
2023/01/02 00:13:22;;;;;;;6.67;3.43;;;16.80;64.00;17.90;100412.00;;;;4990372;28;20679;-46
2023/01/02 00:15:48;;;;;;;7.60;3.50;;;16.80;64.00;17.90;100402.00;;;;4990773;28;20499;-47
2023/01/02 00:18:14;;;;;;;7.00;3.30;;;16.80;64.10;17.90;100414.00;;;;5006974;28;20264;-45
2023/01/02 00:20:40;;;;;;;7.27;3.50;;;16.80;64.00;17.90;100420.00;;;;4990978;28;20555;-48
2023/01/02 00:23:05;;;;;;;6.97;3.70;;;16.80;63.90;17.60;100412.00;;;;4973975;28;20220;-47
2023/01/02 00:25:33;;;;;;;8.63;3.67;;;16.70;63.70;17.90;100345.00;;;;5008242;28;20187;-47
2023/01/02 00:27:59;;;;;;;7.20;3.27;;;16.70;64.60;17.80;100413.00;;;;4990366;28;20537;-46
2023/01/02 00:30:25;;;;;;;5.93;3.90;;;16.80;64.00;17.80;100335.00;;;;4990560;28;20187;-47
2023/01/02 00:32:52;;;;;;;5.23;3.40;;;16.70;64.00;17.80;100401.00;;;;4993464;28;20203;-46
2023/01/02 00:35:18;;;;;;;7.13;3.13;;;16.70;63.90;17.80;100319.00;;;;5004359;28;20550;-47
2023/01/02 00:37:43;;;;;;;5.80;3.13;;;16.70;63.90;17.80;100401.00;;;;4990879;28;20552;-47
2023/01/02 00:40:13;;;;;;;9.97;3.17;;;16.70;64.00;17.80;100331.00;;;;5008178;28;20630;-45
2023/01/02 00:42:40;;;;;;;6.13;3.43;;;16.70;63.80;17.80;100400.00;;;;4990214;28;20176;-47
2023/01/02 00:45:07;;;;;;;5.43;3.30;;;16.60;64.00;17.80;100387.00;;;;4991192;28;20239;-48
2023/01/02 00:47:33;;;;;;;5.17;3.13;;;16.70;64.10;17.80;100381.00;;;;4993851;28;20210;-48
2023/01/02 00:49:58;;;;;;;6.20;3.43;;;16.60;63.90;17.80;100304.00;;;;4993653;28;20176;-49
2023/01/02 00:52:24;;;;;;;6.97;3.20;;;16.60;63.90;17.80;100376.00;;;;5009930;28;20251;-46
2023/01/02 00:54:50;;;;;;;6.17;3.20;;;16.60;64.00;17.80;100376.00;;;;5011134;28;20279;-47
2023/01/02 00:57:16;;;;;;;6.60;3.27;;;16.60;63.90;17.80;100379.00;;;;4993563;28;20176;-47
2023/01/02 00:59:41;;;;;;;5.27;3.00;;;16.60;63.90;17.80;100376.00;;;;5009774;28;21134;-47
2023/01/02 01:02:07;;;;;;;7.87;3.30;;;16.60;63.70;17.80;100378.00;;;;4993323;28;20730;-50
2023/01/02 01:04:36;;;;;;;7.63;3.57;;;16.70;63.90;17.80;100369.00;;;;5009937;28;20322;-47
2023/01/02 01:07:02;;;;;;;5.83;3.20;;;16.60;63.90;17.80;100372.00;;;;4994050;28;20672;-47
2023/01/02 01:09:28;;;;;;;6.60;3.27;;;16.60;63.90;17.80;100364.00;;;;4993575;28;20180;-47
2023/01/02 01:11:53;;;;;;;5.10;3.10;;;16.60;63.90;17.80;100372.00;;;;4993032;28;20207;-47
2023/01/02 01:14:19;;;;;;;5.57;3.20;;;16.60;63.80;17.70;100372.00;;;;5009680;28;20607;-46
2023/01/02 01:16:45;;;;;;;5.97;3.47;;;16.60;63.90;17.70;100380.00;;;;4993430;28;20261;-46
2023/01/02 01:19:11;;;;;;;7.57;3.30;;;16.60;63.80;17.70;100363.00;;;;5009437;28;20880;-48
2023/01/02 01:21:36;;;;;;;10.43;3.90;;;16.60;63.80;17.70;100370.00;;;;4993126;28;20625;-46
2023/01/02 01:24:02;;;;;;;6.67;3.10;;;16.60;63.00;17.70;100376.00;;;;4977069;28;20644;-47
2023/01/02 01:26:28;;;;;;;6.57;3.57;;;16.60;63.70;17.70;100298.00;;;;5009549;28;20175;-46
2023/01/02 01:28:54;;;;;;;7.13;3.53;;;16.50;63.70;17.70;100378.00;;;;4976851;28;20745;-45
2023/01/02 01:31:20;;;;;;;6.73;3.20;;;16.50;63.70;17.60;100382.00;;;;4992899;28;20173;-46
2023/01/02 01:33:46;;;;;;;6.60;2.87;;;16.50;63.60;17.60;100359.00;;;;4992859;28;20213;-46
2023/01/02 01:36:17;;;;;;;9.63;3.60;;;16.50;63.70;17.70;100370.00;;;;4992685;28;20202;-46
2023/01/02 01:38:43;;;;;;;6.30;3.23;;;16.50;63.70;17.60;100375.00;;;;4976883;28;20398;-46
2023/01/02 01:41:11;;;;;;;7.07;3.20;;;16.50;63.60;17.70;100378.00;;;;4992623;28;20168;-47
2023/01/02 01:43:50;;;;;;;6.03;3.27;;;16.50;63.30;17.70;100391.00;;;;4976688;28;20193;-46
2023/01/02 01:46:39;;;;;;;8.23;3.20;;;16.50;63.30;17.70;100290.00;;;;4978259;28;20185;-47
2023/01/02 01:49:14;;;;;;;5.23;3.30;;;16.50;63.00;17.60;100300.00;;;;4994911;28;20164;-46
2023/01/02 01:51:53;;;;;;;6.13;3.00;;;16.50;63.30;17.60;100385.00;;;;5009890;28;20292;-46
2023/01/02 01:54:24;;;;;;;7.30;3.40;;;16.50;63.30;17.60;100384.00;;;;4994309;28;20271;-47
2023/01/02 01:56:55;;;;;;;5.70;3.13;;;16.50;63.10;17.60;100383.00;;;;5008068;28;20187;-46
2023/01/02 01:59:21;;;;;;;5.37;2.90;;;16.60;63.10;17.50;100299.00;;;;5008962;28;20204;-46
2023/01/02 02:01:47;;;;;;;6.57;3.10;;;16.50;63.00;17.50;100395.00;;;;4992344;28;20215;-45
2023/01/02 02:04:13;;;;;;;7.13;3.13;;;16.40;63.10;17.60;100308.00;;;;5009074;28;20227;-46
2023/01/02 02:06:39;;;;;;;5.33;3.00;;;16.50;63.20;17.60;100300.00;;;;4992602;28;20199;-46
2023/01/02 02:09:18;;;;;;;6.70;3.30;;;16.50;63.90;17.50;100319.00;;;;4992689;28;20187;-47
2023/01/02 02:11:43;;;;;;;5.67;3.00;;;16.50;63.30;17.50;100387.00;;;;4992794;28;20184;-47
2023/01/02 02:14:09;;;;;;;5.27;3.20;;;16.50;63.10;17.50;100394.00;;;;5008763;28;20199;-46
2023/01/02 02:16:54;;;;;;;6.93;3.23;;;16.40;63.00;17.50;100399.00;;;;5008559;28;20329;-47
2023/01/02 02:19:51;;;;;;;7.23;3.40;;;16.40;63.10;17.50;100397.00;;;;5008544;28;20215;-47
2023/01/02 02:23:02;;;;;;;6.53;2.93;;;16.40;62.90;17.50;100386.00;;;;5008995;28;20178;-46
2023/01/02 02:25:45;;;;;;;5.87;3.10;;;16.40;63.00;17.50;100388.00;;;;5008267;28;20599;-46
2023/01/02 02:28:26;;;;;;;5.37;3.13;;;16.40;63.10;17.50;100387.00;;;;4991745;28;20171;-46
2023/01/02 02:31:05;;;;;;;5.50;3.10;;;16.40;63.10;17.50;100386.00;;;;5008285;28;20636;-48
2023/01/02 02:34:08;;;;;;;6.60;3.33;;;16.40;62.90;17.40;100385.00;;;;5008047;28;20278;-46
2023/01/02 02:36:43;;;;;;;5.63;3.27;;;16.40;62.90;17.40;100388.00;;;;5008031;28;20191;-46
2023/01/02 02:39:42;;;;;;;7.83;3.30;;;16.40;62.90;17.40;100390.00;;;;5008253;28;20783;-46
2023/01/02 02:42:44;;;;;;;7.50;3.10;;;16.40;62.60;17.40;100382.00;;;;5000060;28;20197;-47
2023/01/02 02:45:13;;;;;;;6.43;3.40;;;16.30;62.70;17.40;100381.00;;;;4993164;28;20195;-46
2023/01/02 02:47:46;;;;;;;5.23;3.03;;;16.40;62.80;17.40;100392.00;;;;5007912;28;20179;-46
2023/01/02 02:50:21;;;;;;;8.67;3.20;;;16.30;62.70;17.40;100382.00;;;;5009474;28;20278;-46
2023/01/02 02:53:18;;;;;;;7.03;3.23;;;16.40;62.90;17.40;100283.00;;;;5008462;28;20178;-50
2023/01/02 02:56:04;;;;;;;6.57;3.10;;;16.40;62.90;17.40;100385.00;;;;4999990;28;20176;-45
2023/01/02 02:58:30;;;;;;;8.93;3.47;;;16.30;62.70;17.40;100375.00;;;;4999150;28;20269;-48
2023/01/02 03:01:10;;;;;;;5.37;3.10;;;16.40;62.80;17.40;100374.00;;;;4995298;28;20255;-47
2023/01/02 03:03:36;;;;;;;6.30;3.20;;;16.30;62.80;17.40;100368.00;;;;5007858;28;20229;-46
2023/01/02 03:06:24;;;;;;;5.83;3.30;;;16.30;62.60;17.40;100276.00;;;;5007788;28;20703;-47
2023/01/02 03:09:17;;;;;;;5.50;3.10;;;16.30;62.70;17.40;100367.00;;;;4991919;28;20657;-45
2023/01/02 03:12:11;;;;;;;7.90;3.20;;;16.30;62.80;17.40;100357.00;;;;5008806;28;20175;-47
2023/01/02 03:14:42;;;;;;;5.63;3.23;;;16.30;62.70;17.30;100352.00;;;;5008914;28;20191;-48
2023/01/02 03:17:33;;;;;;;7.40;3.20;;;16.30;62.70;17.30;100339.00;;;;4975166;28;20688;-47
2023/01/02 03:20:06;;;;;;;7.57;3.40;;;16.30;62.70;17.30;100283.00;;;;4999019;28;20210;-46
2023/01/02 03:22:35;;;;;;;7.03;3.63;;;16.30;62.70;17.30;100367.00;;;;5034547;28;20206;-46
2023/01/02 03:25:01;;;;;;;7.03;3.10;;;16.30;62.70;17.30;100286.00;;;;5022489;28;20225;-46
2023/01/02 03:27:28;;;;;;;9.33;3.53;;;16.30;62.50;17.30;100296.00;;;;5030977;28;20171;-48
2023/01/02 03:30:04;;;;;;;7.13;3.63;;;16.30;62.60;17.30;100403.00;;;;5032071;28;20171;-46
2023/01/02 03:32:37;;;;;;;4.87;3.13;;;16.30;62.40;17.30;100392.00;;;;5011024;28;20194;-45
2023/01/02 03:35:09;;;;;;;5.50;2.97;;;16.30;62.30;17.30;100312.00;;;;5027290;28;20225;-47
2023/01/02 03:37:36;;;;;;;8.27;3.57;;;16.30;62.20;17.30;100306.00;;;;5026983;28;20249;-47
2023/01/02 03:40:10;;;;;;;6.00;3.20;;;16.30;62.30;17.30;100371.00;;;;5027194;28;20230;-48
2023/01/02 03:42:41;;;;;;;6.60;3.40;;;16.30;61.60;17.30;100309.00;;;;5010750;28;20902;-47
2023/01/02 03:45:19;;;;;;;5.57;3.33;;;16.30;62.10;17.30;100386.00;;;;5027038;28;20198;-47
2023/01/02 03:47:56;;;;;;;6.57;3.20;;;16.30;62.20;17.30;100383.00;;;;5026889;28;20213;-46
2023/01/02 03:50:35;;;;;;;6.77;3.27;;;16.20;62.10;17.30;100375.00;;;;5027027;28;20623;-47
2023/01/02 03:53:01;;;;;;;4.93;2.87;;;16.30;62.20;17.30;100298.00;;;;5010328;28;20267;-46
2023/01/02 03:55:27;;;;;;;7.70;3.60;;;16.20;62.10;17.30;100285.00;;;;5027047;28;20155;-46
2023/01/02 03:58:09;;;;;;;6.27;3.20;;;16.20;61.90;17.30;100289.00;;;;5026665;28;20611;-46
2023/01/02 04:00:42;;;;;;;7.67;3.30;;;16.20;62.00;17.30;100392.00;;;;5010058;28;20178;-48
2023/01/02 04:03:38;;;;;;;5.60;3.40;;;16.20;62.00;17.30;100396.00;;;;5026491;28;20199;-46
2023/01/02 04:06:11;;;;;;;6.13;3.57;;;16.20;62.10;17.30;100392.00;;;;5029819;28;20206;-48
2023/01/02 04:09:11;;;;;;;5.10;3.13;;;16.20;61.70;17.30;100401.00;;;;5026402;28;20285;-48
2023/01/02 04:11:38;;;;;;;6.33;3.30;;;16.20;61.70;17.30;100389.00;;;;5021707;28;20198;-48
2023/01/02 04:14:13;;;;;;;7.07;3.20;;;16.20;61.70;17.30;100321.00;;;;5026639;28;20285;-47
2023/01/02 04:16:39;;;;;;;7.50;3.53;;;16.20;61.70;17.30;100392.00;;;;5026754;28;20181;-47
2023/01/02 04:19:20;;;;;;;5.77;3.50;;;16.20;62.00;17.30;100295.00;;;;5026147;28;20584;-47
2023/01/02 04:21:46;;;;;;;6.90;3.50;;;16.20;61.70;17.30;100299.00;;;;5013677;28;20175;-46
2023/01/02 04:24:25;;;;;;;8.43;3.20;;;16.20;61.80;17.30;100294.00;;;;5030641;28;20284;-46
2023/01/02 04:27:03;;;;;;;5.40;2.97;;;16.20;62.00;17.20;100387.00;;;;5015285;28;20167;-47
2023/01/02 04:29:29;;;;;;;4.87;2.83;;;16.20;62.80;17.20;100394.00;;;;5028755;28;20167;-47
2023/01/02 04:31:57;;;;;;;9.13;3.40;;;16.20;62.50;17.30;100400.00;;;;5010266;28;20179;-47
2023/01/02 04:34:23;;;;;;;5.43;3.20;;;16.10;62.40;17.20;100395.00;;;;5011570;28;20286;-47
2023/01/02 04:36:49;;;;;;;5.40;3.20;;;16.20;62.50;17.20;100409.00;;;;5010429;28;20275;-46
2023/01/02 04:39:14;;;;;;;7.00;3.20;;;16.20;62.30;17.20;100399.00;;;;5011869;28;20227;-47
2023/01/02 04:41:41;;;;;;;8.03;3.33;;;16.20;62.30;17.20;100360.00;;;;5010225;28;20245;-46
2023/01/02 04:44:06;;;;;;;7.40;3.50;;;16.10;62.30;17.20;100412.00;;;;4993723;28;20191;-46
2023/01/02 04:46:32;;;;;;;6.03;3.13;;;16.10;62.10;17.20;100399.00;;;;5007254;28;20190;-47
2023/01/02 04:48:58;;;;;;;6.60;3.43;;;16.10;62.10;17.20;100405.00;;;;5002460;28;20183;-46
2023/01/02 04:51:24;;;;;;;8.97;3.20;;;16.20;62.00;17.20;100414.00;;;;4994784;28;20214;-46
2023/01/02 04:53:51;;;;;;;5.27;3.20;;;16.10;61.90;17.20;100419.00;;;;5010395;28;20214;-46
2023/01/02 04:56:16;;;;;;;7.03;3.70;;;16.20;61.90;17.20;100353.00;;;;4978380;28;20195;-46
2023/01/02 04:58:43;;;;;;;7.27;3.20;;;16.10;61.70;17.20;100420.00;;;;4994188;28;20744;-46
2023/01/02 05:01:13;;;;;;;6.60;3.00;;;16.20;61.90;17.20;100435.00;;;;4993856;28;20171;-47
2023/01/02 05:03:43;;;;;;;5.50;3.13;;;16.10;61.80;17.20;100437.00;;;;4994675;28;20223;-47
2023/01/02 05:06:09;;;;;;;6.63;3.17;;;16.10;61.70;17.20;100347.00;;;;5010521;28;20704;-47
2023/01/02 05:08:35;;;;;;;7.77;3.50;;;16.10;61.60;17.20;100434.00;;;;4993966;28;20180;-47
2023/01/02 05:11:12;;;;;;;5.93;3.43;;;16.10;61.60;17.20;100363.00;;;;4994082;28;20194;-47
2023/01/02 05:13:38;;;;;;;7.03;3.30;;;16.10;61.70;17.20;100443.00;;;;5010516;28;20198;-47
2023/01/02 05:16:04;;;;;;;7.77;3.47;;;16.10;61.50;17.20;100440.00;;;;4994067;28;20568;-47
2023/01/02 05:18:30;;;;;;;7.73;3.47;;;16.10;61.50;17.20;100358.00;;;;4994076;28;20207;-47
2023/01/02 05:21:05;;;;;;;6.00;3.30;;;16.10;61.50;17.10;100442.00;;;;4992805;28;20190;-46
2023/01/02 05:23:48;;;;;;;7.70;3.47;;;16.00;61.50;17.10;100445.00;;;;4985622;28;20486;-47
2023/01/02 05:26:16;;;;;;;7.47;3.20;;;16.10;61.40;17.10;100456.00;;;;4985454;28;20164;-46
2023/01/02 05:28:41;;;;;;;9.10;3.13;;;16.10;61.50;17.10;100447.00;;;;4990506;28;20185;-46
2023/01/02 05:31:07;;;;;;;6.07;3.10;;;16.10;61.50;17.10;100453.00;;;;4990773;28;20179;-47
2023/01/02 05:33:33;;;;;;;8.47;3.40;;;16.00;61.30;17.00;100459.00;;;;4973187;28;20192;-47
2023/01/02 05:35:59;;;;;;;7.47;3.20;;;16.00;61.50;17.10;100454.00;;;;4974655;28;20230;-48
2023/01/02 05:38:25;;;;;;;9.57;3.43;;;16.00;61.50;17.10;100458.00;;;;4990583;28;20266;-47
2023/01/02 05:40:59;;;;;;;8.47;3.13;;;16.00;61.50;17.10;100380.00;;;;4963264;28;20187;-47
2023/01/02 05:43:25;;;;;;;7.80;3.23;;;16.10;61.60;17.10;100450.00;;;;4976089;28;20195;-47
2023/01/02 05:45:51;;;;;;;6.57;3.30;;;16.10;61.60;17.10;100460.00;;;;4957972;28;20227;-47
2023/01/02 05:48:17;;;;;;;6.67;3.40;;;16.00;61.50;17.10;100447.00;;;;4989555;28;20227;-46
2023/01/02 05:50:42;;;;;;;10.03;3.40;;;16.00;61.30;17.10;100461.00;;;;4974285;28;20207;-49
2023/01/02 05:53:08;;;;;;;7.07;3.17;;;16.00;61.30;17.10;100466.00;;;;4957375;28;20294;-47
2023/01/02 05:55:34;;;;;;;6.83;3.10;;;16.00;61.30;17.10;100372.00;;;;4957978;28;20235;-46
2023/01/02 05:58:01;;;;;;;5.70;3.00;;;16.00;61.40;17.10;100385.00;;;;4973765;28;20224;-46
2023/01/02 06:00:26;;;;;;;5.97;2.97;;;16.00;61.40;17.10;100472.00;;;;4958334;28;20173;-46
2023/01/02 06:02:52;;;;;;;5.83;3.23;;;16.00;61.40;17.10;100472.00;;;;4957661;28;20176;-47
2023/01/02 06:05:18;;;;;;;8.60;3.20;;;16.00;61.30;17.10;100475.00;;;;4973494;28;20172;-47
2023/01/02 06:07:44;;;;;;;7.70;3.50;;;16.10;61.40;17.10;100474.00;;;;4990957;28;20172;-48
2023/01/02 06:10:09;;;;;;;8.03;3.20;;;16.00;61.30;17.10;100470.00;;;;5010487;28;20594;-47
2023/01/02 06:12:35;;;;;;;7.83;3.10;;;16.00;61.30;17.00;100472.00;;;;5005205;28;20183;-47
2023/01/02 06:15:01;;;;;;;8.50;3.60;;;16.00;61.30;17.00;100472.00;;;;5021335;28;20211;-47
2023/01/02 06:17:26;;;;;;;7.60;3.40;;;16.00;61.40;17.00;100476.00;;;;5009566;28;20182;-47
2023/01/02 06:19:52;;;;;;;9.10;3.73;;;16.00;61.50;17.00;100472.00;;;;4993211;28;20742;-47
2023/01/02 06:22:18;;;;;;;8.60;3.60;;;16.00;61.60;17.00;100401.00;;;;4993303;28;20620;-46
2023/01/02 06:24:44;;;;;;;6.43;3.33;;;15.90;61.50;17.00;100480.00;;;;5008973;28;20192;-47
2023/01/02 06:27:09;;;;;;;8.73;3.60;;;16.00;61.60;17.00;100486.00;;;;4992438;28;20708;-47
2023/01/02 06:29:35;;;;;;;7.73;3.53;;;16.00;61.60;17.00;100485.00;;;;5009157;28;20527;-46
2023/01/02 06:32:01;;;;;;;6.90;3.40;;;16.00;61.60;17.00;100408.00;;;;5008966;28;20188;-47
2023/01/02 06:34:26;;;;;;;7.47;3.07;;;16.00;61.40;17.00;100368.00;;;;5009274;28;20200;-47
2023/01/02 06:36:52;;;;;;;9.07;3.47;;;16.00;61.50;16.60;100483.00;;;;4992290;28;20180;-47
2023/01/02 06:39:18;;;;;;;5.30;3.40;;;16.00;61.60;17.00;100491.00;;;;4992488;28;20199;-47
2023/01/02 06:41:44;;;;;;;6.20;3.00;;;15.90;61.50;17.00;100492.00;;;;5008942;28;20637;-47
2023/01/02 06:44:12;;;;;;;7.70;3.17;;;15.90;61.60;17.00;100497.00;;;;5008363;28;20206;-47
2023/01/02 06:46:38;;;;;;;5.33;3.30;;;15.90;61.60;17.00;100507.00;;;;4991946;28;20211;-46
2023/01/02 06:49:04;;;;;;;6.17;3.10;;;15.90;61.70;17.00;100488.00;;;;5008837;28;20210;-48
2023/01/02 06:51:29;;;;;;;6.83;3.40;;;15.90;61.70;16.90;100495.00;;;;5008542;28;20263;-47
2023/01/02 06:53:55;;;;;;;6.37;3.77;;;15.90;61.90;16.90;100410.00;;;;4992284;28;20214;-48
2023/01/02 06:56:21;;;;;;;6.30;3.30;;;15.90;62.00;16.90;100489.00;;;;4992185;28;20194;-47
2023/01/02 06:58:47;;;;;;;7.80;3.30;;;15.90;62.00;17.00;100488.00;;;;4993048;28;20208;-46
2023/01/02 07:01:16;;;;;;;7.20;3.43;;;15.90;62.10;16.90;100497.00;;;;5010168;28;20182;-47
2023/01/02 07:03:42;;;;;;;6.07;3.47;;;15.90;62.30;16.90;100434.00;;;;4992762;28;20207;-46
2023/01/02 07:06:13;;;;;;;6.07;3.13;;;15.90;62.30;16.90;100467.00;;;;4992291;28;20268;-46
2023/01/02 07:08:39;;;;;;;7.40;3.40;;;15.90;62.30;16.90;100502.00;;;;5015662;28;20613;-46
2023/01/02 07:11:13;;;;;;;6.63;3.03;;;15.90;62.30;16.90;100514.00;;;;5016291;28;20187;-46
2023/01/02 07:13:39;;;;;;;6.83;2.90;;;15.90;62.40;16.90;100520.00;;;;5015165;28;20195;-46
2023/01/02 07:16:07;;;;;;;6.83;3.10;;;15.90;62.50;16.90;100513.00;;;;5008394;28;20179;-46
2023/01/02 07:18:34;;;;;;;7.30;3.40;;;15.90;62.60;16.90;100447.00;;;;5009013;28;20310;-46
2023/01/02 07:20:59;;;;;;;7.53;3.57;;;15.90;62.80;16.90;100517.00;;;;5007742;28;20182;-46
2023/01/02 07:23:25;;;;;;;5.27;3.30;;;15.90;62.80;16.90;100524.00;;;;4991600;28;20294;-47
2023/01/02 07:25:56;;;;;;;6.83;3.10;;;15.90;62.90;16.90;100451.00;;;;5010508;28;20176;-47
2023/01/02 07:28:22;;;;;;;6.10;3.33;;;15.90;63.30;16.90;100537.00;;;;4995056;28;20194;-48
2023/01/02 07:30:48;;;;;;;6.23;3.63;;;15.90;63.40;16.90;100544.00;;;;5004593;28;20187;-48
2023/01/02 07:33:13;;;;;;;5.83;3.53;;;15.90;63.60;16.90;100549.00;;;;4966016;28;20219;-48
2023/01/02 07:35:39;;;;;;;8.00;3.70;;;15.90;64.10;16.90;100555.00;;;;4983100;28;20630;-46
2023/01/02 07:38:05;;;;;;;5.97;3.20;;;15.90;64.50;16.90;100558.00;;;;5007580;28;20226;-46
2023/01/02 07:40:32;;;;;;;6.03;3.30;;;15.90;64.90;16.90;100560.00;;;;5009618;28;20167;-47
2023/01/02 07:42:57;;;;;;;7.80;3.40;;;15.90;65.00;16.90;100557.00;;;;5007840;28;20254;-46
2023/01/02 07:45:23;;;;;;;5.83;3.20;;;16.00;65.20;16.90;100530.00;;;;5009514;28;20260;-48
2023/01/02 07:47:49;;;;;;;7.33;3.47;;;15.90;65.30;16.90;100564.00;;;;5001619;28;20214;-46
2023/01/02 07:50:15;;;;;;;6.27;3.50;;;15.90;65.70;16.90;100475.00;;;;5008165;28;20528;-48
2023/01/02 07:52:42;;;;;;;6.17;3.47;;;15.90;66.00;16.90;100566.00;;;;4974680;28;20186;-46
2023/01/02 07:55:08;;;;;;;5.70;3.17;;;15.90;66.00;16.90;100577.00;;;;4987645;28;20179;-47
2023/01/02 07:57:34;;;;;;;6.17;3.33;;;15.80;65.90;16.90;100579.00;;;;4988292;28;20188;-47
2023/01/02 07:59:59;;;;;;;5.03;3.10;;;15.90;65.50;16.90;100591.00;;;;4972123;28;20204;-46
2023/01/02 08:02:25;;;;;;;5.93;3.03;;;15.90;65.60;16.90;100597.00;;;;4988361;28;20176;-46
2023/01/02 08:04:51;;;;;;;5.10;2.80;;;16.00;66.10;17.00;100514.00;;;;4972197;28;20653;-47
2023/01/02 08:07:17;;;;;;;4.20;3.00;;;16.10;66.20;17.00;100600.00;;;;4987907;28;20697;-48
2023/01/02 08:09:42;;;;;;;6.07;3.17;;;16.20;66.20;17.10;100593.00;;;;4989479;28;20659;-46
2023/01/02 08:12:08;;;;;;;5.77;3.23;;;16.30;66.20;17.20;100592.00;;;;4988496;28;20176;-46
2023/01/02 08:14:34;;;;;;;5.57;3.00;;;16.40;66.10;17.30;100603.00;;;;4996156;28;20199;-48
2023/01/02 08:16:59;;;;;;;6.83;3.17;;;16.60;66.00;17.30;100528.00;;;;5007688;28;20180;-47
2023/01/02 08:19:25;;;;;;;7.23;3.03;;;16.70;65.60;17.40;100618.00;;;;5007810;28;20207;-47
2023/01/02 08:21:51;;;;;;;5.90;3.00;;;16.80;65.30;17.50;100620.00;;;;5007951;28;20176;-47
2023/01/02 08:24:17;;;;;;;5.10;2.77;;;16.90;65.00;17.30;100630.00;;;;5008122;28;20614;-47
2023/01/02 08:26:42;;;;;;;8.00;3.30;;;17.00;64.80;17.60;100631.00;;;;5008023;28;20639;-46
2023/01/02 08:29:08;;;;;;;5.27;3.30;;;17.00;64.60;17.70;100647.00;;;;4991834;28;20183;-47
2023/01/02 08:31:34;;;;;;;3.67;2.60;;;17.10;64.60;17.70;100581.00;;;;5006805;28;20187;-47
2023/01/02 08:34:00;;;;;;;6.20;3.00;;;17.10;64.60;17.80;100634.00;;;;5008215;28;20275;-46
2023/01/02 08:36:26;;;;;;;4.80;2.80;;;17.10;65.40;17.80;100580.00;;;;5002138;28;20191;-46
2023/01/02 08:38:51;;;;;;;4.50;2.53;;;17.10;64.60;17.80;100665.00;;;;5010058;28;20243;-47
2023/01/02 08:41:37;;;;;;;4.43;3.00;;;17.10;64.50;17.90;100677.00;;;;4991314;28;20271;-47
2023/01/02 08:44:03;;;;;;;4.13;2.73;;;17.10;64.70;17.90;100670.00;;;;5007401;28;20193;-47
2023/01/02 08:46:30;;;;;;;4.83;2.70;;;17.10;64.60;17.90;100670.00;;;;4973642;28;20183;-48
2023/01/02 08:48:56;;;;;;;5.13;2.83;;;17.10;64.60;17.90;100680.00;;;;5003677;28;20703;-47
2023/01/02 08:51:22;;;;;;;4.03;2.50;;;17.10;64.70;18.00;100687.00;;;;5007199;28;20245;-46
2023/01/02 08:53:48;;;;;;;3.97;2.63;;;17.20;65.00;18.00;100694.00;;;;5009235;28;20192;-47
2023/01/02 08:56:27;;;;;;;4.93;2.90;;;17.10;65.00;18.00;100690.00;;;;5008301;28;20254;-46
2023/01/02 08:58:58;;;;;;;3.73;2.87;;;17.10;65.10;18.00;100701.00;;;;5007165;28;20203;-47
2023/01/02 09:01:25;;;;;;;3.80;2.50;;;17.10;65.10;18.00;100700.00;;;;5001268;28;20230;-47
2023/01/02 09:03:51;;;;;;;4.23;2.40;;;17.20;65.40;18.00;100695.00;;;;5021402;28;20201;-47
2023/01/02 09:06:18;;;;;;;3.97;2.67;;;17.10;65.20;18.00;100709.00;;;;5013801;28;20607;-48
2023/01/02 09:08:44;;;;;;;3.70;2.60;;;17.10;65.30;18.00;100707.00;;;;5007704;28;20242;-47
2023/01/02 09:11:14;;;;;;;3.97;2.40;;;17.20;65.50;18.00;100720.00;;;;4993226;28;20180;-46
2023/01/02 09:13:41;;;;;;;4.67;2.70;;;17.10;66.30;18.00;100715.00;;;;5017927;28;20192;-46
2023/01/02 09:16:07;;;;;;;4.43;2.60;;;17.10;65.70;18.10;100721.00;;;;5008878;28;20530;-46
2023/01/02 09:18:32;;;;;;;3.50;2.50;;;17.10;65.60;18.10;100732.00;;;;4991783;28;20261;-47
2023/01/02 09:20:58;;;;;;;3.40;2.37;;;17.10;65.60;18.10;100731.00;;;;5011934;28;20168;-46
2023/01/02 09:23:24;;;;;;;4.53;2.50;;;17.10;65.70;18.10;100655.00;;;;5011600;28;20203;-47
2023/01/02 09:25:49;;;;;;;3.53;2.43;;;17.10;65.70;18.10;100754.00;;;;5011042;28;20179;-48
2023/01/02 09:28:15;;;;;;;5.43;2.27;;;17.10;65.80;18.10;100741.00;;;;5011272;28;20764;-47
2023/01/02 09:30:41;;;;;;;3.97;2.27;;;17.10;65.80;18.10;100740.00;;;;4994195;28;20192;-47
2023/01/02 09:33:07;;;;;;;4.20;2.40;;;17.10;65.90;18.10;100746.00;;;;5011274;28;20571;-46
2023/01/02 09:35:34;;;;;;;3.70;2.30;;;17.10;66.00;18.10;100747.00;;;;5010377;28;20172;-46
2023/01/02 09:38:00;;;;;;;4.33;2.40;;;17.10;66.80;18.10;100757.00;;;;5010033;28;20178;-46
2023/01/02 09:40:25;;;;;;;3.30;2.37;;;17.10;65.90;18.10;100751.00;;;;4993924;28;20879;-47
2023/01/02 09:42:51;;;;;;;3.43;2.50;;;17.10;65.90;18.10;100753.00;;;;5009944;28;20171;-47
2023/01/02 09:45:17;;;;;;;3.40;2.40;;;17.10;65.90;18.10;100768.00;;;;5009690;28;20267;-46
2023/01/02 09:47:43;;;;;;;5.10;2.53;;;17.10;65.90;18.10;100778.00;;;;5010129;28;20179;-45
2023/01/02 09:50:23;;;;;;;4.03;2.40;;;17.10;65.90;18.10;100798.00;;;;5009938;28;20797;-47
2023/01/02 09:52:57;;;;;;;4.03;2.27;;;17.10;65.90;18.10;100787.00;;;;5010120;28;20654;-46
2023/01/02 09:55:34;;;;;;;4.97;2.30;;;17.00;65.80;18.10;100794.00;;;;4993598;28;20196;-48
2023/01/02 09:58:44;;;;;;;3.00;2.37;;;17.00;65.80;18.10;100813.00;;;;5009802;28;20164;-47
2023/01/02 10:01:33;;;;;;;3.17;2.40;;;17.10;65.90;18.00;100829.00;;;;5013795;28;20282;-46
2023/01/02 10:04:18;;;;;;;3.60;2.30;;;17.00;65.80;18.00;100820.00;;;;5009934;28;20195;-46
2023/01/02 10:07:01;;;;;;;3.27;2.17;;;17.00;65.80;18.00;100827.00;;;;5010012;28;20197;-45
2023/01/02 10:09:40;;;;;;;2.50;2.30;;;17.10;66.10;18.00;100825.00;;;;5010462;28;20263;-47
2023/01/02 10:12:39;;;;;;;2.90;2.00;;;17.00;65.90;18.00;100831.00;;;;5009547;28;20175;-46
2023/01/02 10:15:09;;;;;;;2.23;2.00;;;17.00;65.90;18.00;100836.00;;;;5018918;28;20683;-46
2023/01/02 10:17:38;;;;;;;2.90;2.03;;;17.00;66.00;18.00;100847.00;;;;4992838;28;20160;-46
2023/01/02 10:20:15;;;;;;;2.60;2.30;;;17.00;65.90;18.00;100844.00;;;;5009398;28;20217;-45
2023/01/02 10:22:52;;;;;;;6.50;2.40;;;17.00;65.90;18.00;100838.00;;;;5009295;28;20195;-46
2023/01/02 10:25:22;;;;;;;7.30;2.60;;;17.00;66.20;17.80;100843.00;;;;5009908;28;20179;-46
2023/01/02 10:28:06;;;;;;;3.40;2.37;;;17.10;66.20;18.00;100769.00;;;;4993014;28;20182;-46
2023/01/02 10:30:37;;;;;;;3.90;2.20;;;17.00;66.00;18.00;100822.00;;;;5009256;28;20168;-46
2023/01/02 10:33:45;;;;;;;3.93;2.00;;;17.10;66.20;18.00;100843.00;;;;4992320;28;20232;-46
2023/01/02 10:36:30;;;;;;;3.97;1.90;;;17.00;66.20;18.00;100838.00;;;;5013123;28;20255;-46
2023/01/02 10:38:59;;;;;;;2.20;2.00;;;17.00;66.20;17.90;100847.00;;;;5009220;28;20657;-48
2023/01/02 10:41:25;;;;;;;2.10;1.90;;;17.00;66.20;17.70;100845.00;;;;5008925;28;20172;-47
2023/01/02 10:44:26;;;;;;;2.20;2.00;;;17.00;66.00;18.00;100857.00;;;;4992457;28;20199;-46
2023/01/02 10:46:52;;;;;;;2.53;1.80;;;17.00;66.00;17.90;100852.00;;;;5013332;28;20851;-47
2023/01/02 10:49:18;;;;;;;1.90;1.70;;;16.90;66.00;17.90;100801.00;;;;5008840;28;20178;-45
2023/01/02 10:51:50;;;;;;;2.53;2.10;;;16.90;66.00;17.60;100850.00;;;;5008816;28;20300;-44
2023/01/02 10:54:15;;;;;;;2.50;2.00;;;16.90;66.00;17.90;100773.00;;;;5009020;28;20214;-47
2023/01/02 10:56:41;;;;;;;5.17;2.00;;;16.90;66.00;17.90;100846.00;;;;5008853;28;20172;-47
2023/01/02 10:59:26;;;;;;;6.63;2.47;;;16.90;66.00;17.90;100843.00;;;;5008996;28;20196;-47
2023/01/02 11:01:57;;;;;;;5.03;1.90;;;16.90;66.10;17.90;100852.00;;;;5012862;28;20202;-49